Time;durP1;ratioP1;P1;durP2;ratioP2;P2;SDS_P1;SDS_P2;PMS_P1;PMS_P2;Temp;Humidity;BMP_temperature;BMP_pressure;BME280_temperature;BME280_humidity;BME280_pressure;Samples;Min_cycle;Max_cycle;Signal;HPM_P1;HPM_P2
2021/03/08 00:00:50;;;;;;;28.07;13.23;;;;;;;0.36;100.00;96455.44;5038571;28;20206;-72
2021/03/08 00:03:16;;;;;;;26.57;12.23;;;;;;;0.36;100.00;96454.63;5038423;28;20274;-73
2021/03/08 00:05:43;;;;;;;27.20;12.23;;;;;;;0.28;100.00;96457.75;5037602;28;20734;-73
2021/03/08 00:08:10;;;;;;;28.30;13.03;;;;;;;0.26;100.00;96457.03;5039186;28;20231;-73
2021/03/08 00:10:36;;;;;;;28.33;12.50;;;;;;;0.16;100.00;96463.78;5038091;28;20280;-73
2021/03/08 00:13:03;;;;;;;29.47;12.47;;;;;;;0.29;100.00;96469.75;5038082;28;20234;-73
2021/03/08 00:15:29;;;;;;;28.07;11.90;;;;;;;0.23;100.00;96469.34;5037481;28;20265;-74
2021/03/08 00:17:55;;;;;;;31.27;13.13;;;;;;;0.21;100.00;96466.06;5037723;28;20213;-73
2021/03/08 00:20:23;;;;;;;30.43;12.93;;;;;;;0.21;100.00;96471.25;5038372;28;20200;-73
2021/03/08 00:22:49;;;;;;;34.43;13.40;;;;;;;0.20;100.00;96467.00;5038514;28;20225;-73
2021/03/08 00:25:18;;;;;;;31.73;12.87;;;;;;;0.06;100.00;96467.16;5037501;28;20605;-73
2021/03/08 00:27:45;;;;;;;31.90;12.97;;;;;;;0.05;100.00;96468.06;5037352;28;20235;-73
2021/03/08 00:30:12;;;;;;;30.00;13.27;;;;;;;0.11;100.00;96475.44;5038164;28;20224;-73
2021/03/08 00:32:38;;;;;;;29.67;12.87;;;;;;;0.04;100.00;96464.69;5037450;28;20222;-73
2021/03/08 00:35:06;;;;;;;31.27;12.10;;;;;;;-0.04;100.00;96463.53;5036936;28;20208;-73
2021/03/08 00:37:33;;;;;;;26.13;11.13;;;;;;;0.00;99.76;96460.66;5037525;28;20203;-73
2021/03/08 00:39:59;;;;;;;26.47;12.07;;;;;;;0.08;99.67;96458.34;5038940;28;20232;-73
2021/03/08 00:42:25;;;;;;;31.10;13.03;;;;;;;0.01;100.00;96454.53;5037624;28;20209;-73
2021/03/08 00:44:52;;;;;;;27.50;12.03;;;;;;;-0.23;100.00;96459.78;5037455;28;20208;-73
2021/03/08 00:47:18;;;;;;;33.57;13.40;;;;;;;-0.34;100.00;96455.34;5037311;28;20689;-72
2021/03/08 00:49:44;;;;;;;28.40;13.17;;;;;;;-0.40;100.00;96463.53;5037705;28;20217;-73
2021/03/08 00:52:10;;;;;;;27.77;12.30;;;;;;;-0.37;100.00;96452.97;5037822;28;20235;-73
2021/03/08 00:54:36;;;;;;;26.47;11.97;;;;;;;-0.29;100.00;96455.84;5037671;28;20207;-73
2021/03/08 00:57:03;;;;;;;27.97;12.03;;;;;;;-0.29;100.00;96447.28;5036771;28;20210;-73
2021/03/08 00:59:29;;;;;;;28.47;11.67;;;;;;;-0.30;100.00;96445.63;5037233;28;20607;-73
2021/03/08 01:01:56;;;;;;;28.87;12.63;;;;;;;-0.33;100.00;96440.63;5037573;28;20290;-73
2021/03/08 01:04:21;;;;;;;30.67;12.77;;;;;;;-0.42;100.00;96439.53;5037351;28;20219;-73
2021/03/08 01:06:48;;;;;;;31.50;12.87;;;;;;;-0.43;100.00;96445.63;5036317;28;20247;-73
2021/03/08 01:09:14;;;;;;;30.50;12.93;;;;;;;-0.43;100.00;96450.81;5037072;28;20693;-73
2021/03/08 01:11:39;;;;;;;26.93;11.60;;;;;;;-0.49;100.00;96445.22;5037404;28;20250;-73
2021/03/08 01:14:05;;;;;;;27.43;11.83;;;;;;;-0.34;100.00;96442.41;5036998;28;20658;-72
2021/03/08 01:16:31;;;;;;;28.37;11.67;;;;;;;-0.42;100.00;96438.69;5036389;28;20212;-72
2021/03/08 01:18:58;;;;;;;23.83;11.73;;;;;;;-0.49;100.00;96437.47;5037390;28;20206;-72
2021/03/08 01:21:24;;;;;;;30.40;12.10;;;;;;;-0.53;100.00;96442.00;5037044;28;20197;-72
2021/03/08 01:23:50;;;;;;;28.73;12.93;;;;;;;-0.54;100.00;96440.34;5036722;28;20316;-72
2021/03/08 01:26:16;;;;;;;29.83;12.20;;;;;;;-0.52;100.00;96440.28;5036388;28;20205;-72
2021/03/08 01:28:42;;;;;;;23.33;11.20;;;;;;;-0.60;100.00;96439.94;5037209;28;20754;-72
2021/03/08 01:31:08;;;;;;;28.07;11.43;;;;;;;-0.55;99.03;96432.69;5036597;28;20236;-73
2021/03/08 01:33:34;;;;;;;27.57;11.97;;;;;;;-0.65;100.00;96431.69;5037106;28;20251;-73
2021/03/08 01:36:01;;;;;;;33.10;12.83;;;;;;;-0.80;100.00;96432.75;5036187;28;20213;-73
2021/03/08 01:38:27;;;;;;;27.37;11.57;;;;;;;-0.77;100.00;96422.19;5036647;28;20249;-73
2021/03/08 01:40:53;;;;;;;24.73;11.07;;;;;;;-0.85;99.98;96428.78;5037118;28;20354;-72
2021/03/08 01:43:21;;;;;;;24.40;11.83;;;;;;;-0.83;100.00;96427.75;5036558;28;20593;-73
2021/03/08 01:45:47;;;;;;;24.80;11.83;;;;;;;-1.02;100.00;96424.78;5035584;28;20209;-73
2021/03/08 01:48:13;;;;;;;29.87;13.80;;;;;;;-1.11;100.00;96421.97;5036535;28;20284;-73
2021/03/08 01:50:40;;;;;;;29.70;12.87;;;;;;;-0.93;100.00;96415.56;5036573;28;20225;-73
2021/03/08 01:53:09;;;;;;;28.23;12.50;;;;;;;-0.88;100.00;96424.69;5037058;28;20278;-72
2021/03/08 01:55:36;;;;;;;28.47;11.97;;;;;;;-0.88;100.00;96423.84;5036332;28;20738;-73
2021/03/08 01:58:02;;;;;;;28.57;12.43;;;;;;;-0.88;100.00;96429.84;5036272;28;20205;-73
2021/03/08 02:00:29;;;;;;;27.53;12.23;;;;;;;-0.93;100.00;96431.94;5036490;28;20198;-73
2021/03/08 02:02:56;;;;;;;34.07;12.47;;;;;;;-0.90;100.00;96429.13;5037120;28;20233;-73
2021/03/08 02:05:25;;;;;;;27.27;12.47;;;;;;;-0.88;100.00;96423.84;5035675;28;20197;-72
2021/03/08 02:07:51;;;;;;;27.50;12.57;;;;;;;-1.05;100.00;96422.38;5036028;28;20208;-73
2021/03/08 02:10:19;;;;;;;31.60;11.97;;;;;;;-1.00;100.00;96415.16;5036290;28;20279;-73
2021/03/08 02:12:57;;;;;;;28.23;12.13;;;;;;;-1.15;100.00;96429.09;5036863;28;20251;-73
2021/03/08 02:15:35;;;;;;;30.43;12.87;;;;;;;-1.14;100.00;96423.00;5036032;28;20205;-73
2021/03/08 02:18:05;;;;;;;29.87;11.90;;;;;;;-1.20;100.00;96422.59;5036231;28;20284;-73
2021/03/08 02:20:55;;;;;;;30.50;12.73;;;;;;;-1.15;100.00;96416.16;5035945;28;20193;-73
2021/03/08 02:23:44;;;;;;;30.43;12.33;;;;;;;-1.23;100.00;96415.06;5036401;28;20229;-73
2021/03/08 02:26:25;;;;;;;30.20;12.53;;;;;;;-1.33;100.00;96410.59;5035689;28;20923;-73
2021/03/08 02:29:30;;;;;;;32.20;12.20;;;;;;;-1.28;100.00;96429.22;5035909;28;20203;-73
2021/03/08 02:31:59;;;;;;;34.83;13.03;;;;;;;-1.42;100.00;96422.34;5036375;28;20213;-73
2021/03/08 02:34:29;;;;;;;32.77;12.97;;;;;;;-1.40;100.00;96430.00;5036659;28;20324;-73
2021/03/08 02:37:00;;;;;;;35.30;12.87;;;;;;;-1.37;100.00;96425.47;5035273;28;20216;-73
2021/03/08 02:39:30;;;;;;;33.10;13.10;;;;;;;-1.36;100.00;96426.28;5036060;28;20199;-73
2021/03/08 02:41:58;;;;;;;32.37;12.93;;;;;;;-1.45;100.00;96414.81;5036151;28;20572;-73
2021/03/08 02:44:28;;;;;;;30.70;12.97;;;;;;;-1.44;100.00;96416.47;5035824;28;20231;-73
2021/03/08 02:46:56;;;;;;;34.53;13.20;;;;;;;-1.46;100.00;96420.09;5035249;28;20205;-73
2021/03/08 02:49:25;;;;;;;32.90;12.93;;;;;;;-1.37;100.00;96415.13;5036252;28;20197;-73
2021/03/08 02:51:57;;;;;;;36.63;13.60;;;;;;;-1.46;100.00;96410.56;5036056;28;20212;-73
2021/03/08 02:54:26;;;;;;;38.37;13.57;;;;;;;-1.47;100.00;96413.25;5036257;28;20248;-73
2021/03/08 02:56:55;;;;;;;27.87;12.23;;;;;;;-1.45;100.00;96414.81;5037086;28;20375;-73
2021/03/08 02:59:23;;;;;;;32.10;13.47;;;;;;;-1.56;100.00;96413.88;5040094;28;20580;-73
2021/03/08 03:01:51;;;;;;;33.57;13.77;;;;;;;-1.60;100.00;96412.41;5039683;28;20212;-73
2021/03/08 03:04:20;;;;;;;41.77;13.67;;;;;;;-1.61;100.00;96416.72;5039331;28;20614;-73
2021/03/08 03:06:49;;;;;;;36.47;14.10;;;;;;;-1.72;100.00;96415.78;5038818;28;20312;-73
2021/03/08 03:09:17;;;;;;;39.63;14.03;;;;;;;-1.70;100.00;96404.41;5040288;28;20216;-73
2021/03/08 03:11:48;;;;;;;36.47;13.13;;;;;;;-1.58;100.00;96405.38;5039095;28;20204;-73
2021/03/08 03:14:16;;;;;;;29.93;13.23;;;;;;;-1.84;100.00;96408.03;5039178;28;20221;-73
2021/03/08 03:16:43;;;;;;;32.27;13.40;;;;;;;-1.66;100.00;96402.47;5038887;28;20201;-73
2021/03/08 03:19:11;;;;;;;31.10;13.70;;;;;;;-1.58;100.00;96415.72;5039901;28;20205;-73
2021/03/08 03:21:38;;;;;;;31.13;12.73;;;;;;;-1.57;100.00;96409.63;5039305;28;20681;-73
2021/03/08 03:24:08;;;;;;;32.97;13.23;;;;;;;-1.68;100.00;96409.47;5039192;28;20248;-73
2021/03/08 03:26:35;;;;;;;34.27;13.60;;;;;;;-1.72;100.00;96402.88;5038570;28;20679;-73
2021/03/08 03:29:02;;;;;;;30.00;12.43;;;;;;;-1.61;100.00;96405.59;5038930;28;20257;-73
2021/03/08 03:31:28;;;;;;;29.10;12.43;;;;;;;-1.55;100.00;96407.78;5039206;28;20216;-73
2021/03/08 03:33:55;;;;;;;31.27;12.43;;;;;;;-1.60;100.00;96412.41;5039329;28;20226;-73
2021/03/08 03:36:22;;;;;;;28.53;12.73;;;;;;;-1.57;100.00;96417.38;5038306;28;20212;-73
2021/03/08 03:38:49;;;;;;;29.83;12.37;;;;;;;-1.71;100.00;96425.19;5038905;28;20197;-73
2021/03/08 03:41:16;;;;;;;31.83;13.77;;;;;;;-1.71;100.00;96420.03;5038958;28;20223;-73
2021/03/08 03:43:42;;;;;;;28.53;12.53;;;;;;;-1.92;100.00;96426.59;5038664;28;20270;-73
2021/03/08 03:46:08;;;;;;;37.73;12.80;;;;;;;-1.85;100.00;96430.41;5037831;28;20304;-73
2021/03/08 03:48:34;;;;;;;30.87;12.23;;;;;;;-1.72;100.00;96428.69;5039230;28;20233;-73
2021/03/08 03:51:00;;;;;;;32.63;13.13;;;;;;;-1.82;100.00;96425.03;5037105;28;20225;-72
2021/03/08 03:53:26;;;;;;;30.93;13.83;;;;;;;-1.81;100.00;96434.44;5038181;28;20227;-73
2021/03/08 03:55:53;;;;;;;28.47;12.33;;;;;;;-1.78;100.00;96426.53;5038033;28;20217;-72
2021/03/08 03:58:27;;;;;;;27.03;11.53;;;;;;;-1.77;100.00;96430.75;5039052;28;20204;-73
2021/03/08 04:00:56;;;;;;;36.53;13.20;;;;;;;-1.75;100.00;96431.47;5038523;28;20223;-72
2021/03/08 04:03:26;;;;;;;32.37;13.03;;;;;;;-1.71;100.00;96438.91;5038600;28;20232;-72
2021/03/08 04:05:55;;;;;;;29.70;12.00;;;;;;;-1.75;100.00;96439.22;5037827;28;20205;-73
2021/03/08 04:08:25;;;;;;;29.70;12.87;;;;;;;-1.78;100.00;96444.59;5038213;28;20706;-73
2021/03/08 04:10:52;;;;;;;30.30;12.27;;;;;;;-1.79;100.00;96441.16;5038395;28;20221;-73
2021/03/08 04:13:18;;;;;;;29.63;12.97;;;;;;;-1.87;100.00;96444.34;5038319;28;20710;-73
2021/03/08 04:15:45;;;;;;;32.87;12.43;;;;;;;-1.90;100.00;96447.94;5037533;28;20888;-73
2021/03/08 04:18:13;;;;;;;35.17;12.80;;;;;;;-1.98;100.00;96452.78;5038482;28;20208;-73
2021/03/08 04:20:41;;;;;;;33.17;12.67;;;;;;;-1.97;100.00;96459.59;5038175;28;20314;-72
2021/03/08 04:23:11;;;;;;;30.67;11.93;;;;;;;-2.01;100.00;96452.97;5037748;28;20233;-72
2021/03/08 04:25:40;;;;;;;26.83;11.40;;;;;;;-2.15;100.00;96460.75;5037597;28;20213;-73
2021/03/08 04:28:06;;;;;;;34.73;13.17;;;;;;;-2.13;100.00;96464.06;5037193;28;20756;-72
2021/03/08 04:30:34;;;;;;;33.07;13.67;;;;;;;-2.26;100.00;96458.00;5038393;28;20225;-72
2021/03/08 04:33:01;;;;;;;35.60;14.07;;;;;;;-2.16;100.00;96455.69;5039096;28;20229;-73
2021/03/08 04:35:30;;;;;;;36.20;14.47;;;;;;;-2.24;100.00;96463.91;5036952;28;20578;-73
2021/03/08 04:37:58;;;;;;;37.60;14.47;;;;;;;-2.14;100.00;96451.25;5037519;28;20220;-73
2021/03/08 04:40:25;;;;;;;30.63;12.80;;;;;;;-2.19;100.00;96459.28;5037802;28;21110;-73
2021/03/08 04:42:52;;;;;;;29.77;13.33;;;;;;;-2.11;100.00;96459.63;5038135;28;20229;-72
2021/03/08 04:45:19;;;;;;;35.03;14.30;;;;;;;-2.09;100.00;96465.50;5037018;28;20201;-73
2021/03/08 04:47:46;;;;;;;39.87;15.17;;;;;;;-2.06;100.00;96460.19;5037495;28;20278;-73
2021/03/08 04:50:14;;;;;;;31.97;13.43;;;;;;;-2.15;100.00;96470.22;5037832;28;20220;-73
2021/03/08 04:52:44;;;;;;;32.00;13.67;;;;;;;-2.06;100.00;96465.34;5037642;28;20221;-73
2021/03/08 04:55:12;;;;;;;34.43;14.03;;;;;;;-2.13;100.00;96474.38;5037319;28;20209;-73
2021/03/08 04:57:39;;;;;;;37.17;14.27;;;;;;;-2.09;100.00;96472.44;5037400;28;20205;-73
2021/03/08 05:00:08;;;;;;;34.60;13.53;;;;;;;-2.14;100.00;96479.66;5037211;28;20583;-73
2021/03/08 05:02:35;;;;;;;33.27;13.10;;;;;;;-2.08;100.00;96477.50;5037451;28;20232;-73
2021/03/08 05:05:04;;;;;;;31.13;12.87;;;;;;;-2.30;100.00;96481.53;5037004;28;20201;-73
2021/03/08 05:07:34;;;;;;;32.83;13.93;;;;;;;-2.33;100.00;96482.53;5037069;28;20220;-73
2021/03/08 05:10:02;;;;;;;30.80;12.87;;;;;;;-2.31;100.00;96485.03;5036419;28;20906;-73
2021/03/08 05:12:28;;;;;;;34.43;13.83;;;;;;;-2.28;100.00;96484.81;5037428;28;20197;-73
2021/03/08 05:14:57;;;;;;;31.30;13.00;;;;;;;-2.30;100.00;96490.09;5037253;28;20213;-73
2021/03/08 05:17:23;;;;;;;33.77;13.80;;;;;;;-2.34;100.00;96486.03;5036428;28;20205;-73
2021/03/08 05:19:50;;;;;;;34.33;13.90;;;;;;;-2.32;100.00;96489.38;5036740;28;20208;-72
2021/03/08 05:22:18;;;;;;;31.80;13.50;;;;;;;-2.36;100.00;96487.88;5036999;28;20254;-72
2021/03/08 05:24:49;;;;;;;33.27;13.70;;;;;;;-2.31;100.00;96487.59;5037167;28;20198;-72
2021/03/08 05:27:17;;;;;;;38.70;14.37;;;;;;;-2.37;100.00;96488.81;5036066;28;21012;-72
2021/03/08 05:29:45;;;;;;;32.10;12.97;;;;;;;-2.45;100.00;96489.38;5036968;28;20232;-73
2021/03/08 05:32:13;;;;;;;29.97;12.33;;;;;;;-2.44;100.00;96488.44;5036699;28;20201;-73
2021/03/08 05:34:44;;;;;;;35.17;13.83;;;;;;;-2.44;100.00;96497.03;5037094;28;20664;-73
2021/03/08 05:37:12;;;;;;;29.30;12.27;;;;;;;-2.32;100.00;96498.84;5035847;28;20209;-72
2021/03/08 05:39:39;;;;;;;31.90;12.67;;;;;;;-2.32;100.00;96498.84;5036389;28;20197;-72
2021/03/08 05:42:11;;;;;;;31.73;13.33;;;;;;;-2.29;100.00;96493.47;5036473;28;20573;-72
2021/03/08 05:44:43;;;;;;;32.73;13.50;;;;;;;-2.34;100.00;96500.72;5037562;28;20227;-72
2021/03/08 05:47:37;;;;;;;35.50;13.87;;;;;;;-2.34;100.00;96506.69;5035494;28;20212;-72
2021/03/08 05:50:26;;;;;;;34.27;13.03;;;;;;;-2.32;100.00;96498.84;5036144;28;20223;-73
2021/03/08 05:53:16;;;;;;;32.70;13.47;;;;;;;-2.28;100.00;96496.00;5036798;28;20650;-73
2021/03/08 05:56:11;;;;;;;28.90;13.07;;;;;;;-2.22;100.00;96500.75;5035607;28;20205;-73
2021/03/08 05:58:55;;;;;;;29.17;12.87;;;;;;;-2.14;100.00;96506.31;5036832;28;20560;-73
2021/03/08 06:01:46;;;;;;;30.13;13.20;;;;;;;-2.04;100.00;96509.13;5036776;28;20274;-73
2021/03/08 06:04:24;;;;;;;35.80;13.20;;;;;;;-1.98;100.00;96514.75;5027813;28;20849;-73
2021/03/08 06:07:41;;;;;;;33.30;12.60;;;;;;;-1.87;100.00;96511.47;5035462;28;20212;-73
2021/03/08 06:10:12;;;;;;;27.70;12.53;;;;;;;-1.79;100.00;96518.66;5036081;28;20248;-73
2021/03/08 06:12:40;;;;;;;27.67;11.97;;;;;;;-1.80;100.00;96518.75;5036703;28;20286;-73
2021/03/08 06:15:09;;;;;;;31.27;13.57;;;;;;;-1.71;100.00;96518.16;5036073;28;20258;-73
2021/03/08 06:17:37;;;;;;;29.27;13.47;;;;;;;-1.67;100.00;96519.63;5036241;28;20212;-73
2021/03/08 06:20:04;;;;;;;31.70;12.70;;;;;;;-1.51;100.00;96520.34;5036107;28;20208;-73
2021/03/08 06:22:32;;;;;;;25.57;12.67;;;;;;;-1.43;100.00;96525.81;5037049;28;20208;-73
2021/03/08 06:24:59;;;;;;;28.77;13.13;;;;;;;-1.37;100.00;96522.84;5036269;28;20209;-73
2021/03/08 06:27:26;;;;;;;29.40;13.33;;;;;;;-1.36;100.00;96524.50;5035513;28;20227;-74
2021/03/08 06:29:53;;;;;;;30.27;13.37;;;;;;;-1.40;100.00;96530.78;5036368;28;20232;-73
2021/03/08 06:32:20;;;;;;;31.50;14.13;;;;;;;-1.37;100.00;96538.38;5039511;28;20201;-74
2021/03/08 06:34:46;;;;;;;27.20;12.77;;;;;;;-1.47;100.00;96537.28;5039783;28;20204;-73
2021/03/08 06:37:14;;;;;;;31.03;13.40;;;;;;;-1.36;100.00;96546.00;5039864;28;20201;-74
2021/03/08 06:39:43;;;;;;;29.73;13.23;;;;;;;-1.39;100.00;96542.78;5040018;28;20634;-74
2021/03/08 06:42:10;;;;;;;30.43;13.07;;;;;;;-1.30;100.00;96545.59;5040210;28;20254;-74
2021/03/08 06:44:37;;;;;;;32.03;13.60;;;;;;;-1.42;100.00;96545.59;5039742;28;20229;-72
2021/03/08 06:47:05;;;;;;;30.23;14.33;;;;;;;-1.31;100.00;96545.69;5039176;28;20563;-72
2021/03/08 06:49:32;;;;;;;30.10;13.50;;;;;;;-1.17;100.00;96557.66;5040015;28;20216;-72
2021/03/08 06:52:06;;;;;;;28.63;12.97;;;;;;;-1.06;100.00;96547.44;5040137;28;20224;-73
2021/03/08 06:54:33;;;;;;;26.20;12.53;;;;;;;-0.85;99.92;96545.19;5039776;28;20225;-74
2021/03/08 06:56:59;;;;;;;29.13;13.00;;;;;;;-0.76;99.32;96553.19;5039211;28;20209;-74
2021/03/08 06:59:25;;;;;;;32.53;14.17;;;;;;;-0.85;100.00;96553.78;5039660;28;20259;-74
2021/03/08 07:01:52;;;;;;;30.50;13.70;;;;;;;-0.80;100.00;96556.91;5040235;28;20193;-74
2021/03/08 07:04:21;;;;;;;30.60;13.33;;;;;;;-0.77;100.00;96553.28;5039750;28;20221;-74
2021/03/08 07:07:03;;;;;;;31.80;14.53;;;;;;;-0.79;100.00;96560.31;5038996;28;20198;-74
2021/03/08 07:09:29;;;;;;;30.87;14.17;;;;;;;-0.70;100.00;96563.13;5039651;28;20594;-73
2021/03/08 07:12:10;;;;;;;30.93;14.90;;;;;;;-0.63;100.00;96560.97;5039130;28;20302;-74
2021/03/08 07:14:37;;;;;;;31.00;13.40;;;;;;;-0.56;100.00;96555.25;5039045;28;20426;-73
2021/03/08 07:17:26;;;;;;;29.47;14.27;;;;;;;-0.46;100.00;96556.28;5038362;28;20201;-74
2021/03/08 07:19:55;;;;;;;31.20;13.43;;;;;;;-0.32;98.56;96556.19;5039336;28;20267;-74
2021/03/08 07:22:43;;;;;;;30.53;13.80;;;;;;;-0.25;99.86;96560.84;5039186;28;20599;-74
2021/03/08 07:25:17;;;;;;;26.50;13.60;;;;;;;-0.13;99.36;96559.19;5038456;28;20209;-74
2021/03/08 07:27:45;;;;;;;29.80;13.67;;;;;;;-0.11;98.51;96558.16;5037908;28;20209;-74
2021/03/08 07:30:12;;;;;;;27.30;13.17;;;;;;;0.00;96.89;96563.44;5037650;28;20217;-72
2021/03/08 07:32:39;;;;;;;31.07;14.47;;;;;;;0.06;97.70;96566.44;5038366;28;20217;-72
2021/03/08 07:35:08;;;;;;;29.07;14.07;;;;;;;0.16;97.26;96571.78;5037892;28;20240;-73
2021/03/08 07:37:47;;;;;;;29.07;13.30;;;;;;;0.23;96.00;96570.41;5038443;28;20255;-73
2021/03/08 07:40:23;;;;;;;26.10;13.43;;;;;;;0.31;96.86;96563.78;5039036;28;20548;-73
2021/03/08 07:42:49;;;;;;;28.57;13.30;;;;;;;0.36;96.70;96572.06;5037465;28;20238;-73
2021/03/08 07:45:16;;;;;;;26.33;13.37;;;;;;;0.45;96.40;96570.59;5038122;28;20206;-73
2021/03/08 07:47:42;;;;;;;29.20;14.90;;;;;;;0.41;96.35;96569.97;5038510;28;20682;-73
2021/03/08 07:50:24;;;;;;;27.93;13.90;;;;;;;0.47;96.36;96572.13;5038626;28;20217;-73
2021/03/08 07:52:51;;;;;;;24.23;12.93;;;;;;;0.54;95.45;96572.53;5039002;28;20224;-73
2021/03/08 07:55:18;;;;;;;31.60;13.73;;;;;;;0.39;95.46;96574.41;5037643;28;20257;-72
2021/03/08 07:57:44;;;;;;;27.17;12.63;;;;;;;0.67;94.56;96574.13;5038406;28;20292;-72
2021/03/08 08:00:11;;;;;;;26.37;12.40;;;;;;;0.67;94.57;96574.13;5038396;28;20226;-73
2021/03/08 08:02:37;;;;;;;26.23;13.33;;;;;;;0.74;93.87;96567.59;5037520;28;20232;-73
2021/03/08 08:05:04;;;;;;;29.23;13.97;;;;;;;0.80;93.88;96580.09;5036972;28;20409;-73
2021/03/08 08:07:32;;;;;;;30.07;14.07;;;;;;;0.89;95.78;96580.28;5038149;28;20577;-73
2021/03/08 08:10:03;;;;;;;26.57;13.77;;;;;;;0.90;95.71;96575.91;5037730;28;20270;-73
2021/03/08 08:12:33;;;;;;;32.07;14.57;;;;;;;0.89;96.63;96579.41;5038076;28;20587;-73
2021/03/08 08:15:00;;;;;;;31.97;14.57;;;;;;;0.98;94.68;96583.94;5038024;28;20209;-73
2021/03/08 08:17:29;;;;;;;25.10;13.57;;;;;;;1.17;92.94;96574.69;5037782;28;20217;-73
2021/03/08 08:19:58;;;;;;;25.83;13.00;;;;;;;1.22;92.52;96565.66;5037761;28;20270;-73
2021/03/08 08:22:25;;;;;;;29.40;14.10;;;;;;;1.28;91.55;96578.16;5038032;28;20193;-73
2021/03/08 08:24:54;;;;;;;28.87;13.50;;;;;;;1.34;91.41;96582.91;5037901;28;20492;-73
2021/03/08 08:27:22;;;;;;;30.03;14.17;;;;;;;1.26;94.02;96580.06;5036392;28;20224;-73
2021/03/08 08:29:50;;;;;;;31.83;14.77;;;;;;;1.35;93.83;96576.78;5037300;28;20212;-74
2021/03/08 08:32:17;;;;;;;29.67;13.63;;;;;;;1.51;92.71;96579.88;5038132;28;20193;-74
2021/03/08 08:34:44;;;;;;;26.63;13.23;;;;;;;1.52;92.19;96581.56;5036977;28;20205;-73
2021/03/08 08:37:12;;;;;;;27.97;12.73;;;;;;;1.70;92.39;96572.38;5036543;28;20832;-73
2021/03/08 08:39:40;;;;;;;22.47;12.30;;;;;;;1.83;89.94;96570.50;5037581;28;20205;-74
2021/03/08 08:42:13;;;;;;;25.53;12.27;;;;;;;1.83;90.61;96581.75;5037475;28;20200;-74
2021/03/08 08:44:41;;;;;;;21.70;11.60;;;;;;;1.92;85.85;96569.81;5037127;28;20201;-73
2021/03/08 08:47:29;;;;;;;22.07;12.00;;;;;;;1.94;87.82;96573.13;5036556;28;20664;-73
2021/03/08 08:49:58;;;;;;;26.47;12.33;;;;;;;1.98;87.46;96569.34;5037017;28;20255;-74
2021/03/08 08:52:51;;;;;;;24.53;12.07;;;;;;;2.06;89.07;96582.56;5037384;28;20205;-73
2021/03/08 08:55:20;;;;;;;24.07;11.77;;;;;;;2.23;87.41;96579.50;5035734;28;20773;-74
2021/03/08 08:58:24;;;;;;;22.83;12.23;;;;;;;2.29;85.30;96573.81;5036784;28;20205;-74
2021/03/08 09:01:33;;;;;;;27.33;12.47;;;;;;;2.55;87.62;96576.88;5037046;28;20235;-73
2021/03/08 09:04:00;;;;;;;23.03;12.37;;;;;;;2.58;87.56;96587.06;5036945;28;20240;-73
2021/03/08 09:06:53;;;;;;;23.63;12.90;;;;;;;2.58;85.41;96581.84;5035880;28;20209;-74
2021/03/08 09:09:21;;;;;;;24.40;12.43;;;;;;;2.58;85.20;96581.84;5036372;28;20255;-73
2021/03/08 09:11:53;;;;;;;28.93;13.27;;;;;;;2.36;85.68;96581.03;5036606;28;20302;-74
2021/03/08 09:14:34;;;;;;;21.60;12.60;;;;;;;2.48;85.40;96580.91;5036395;28;20221;-73
2021/03/08 09:17:17;;;;;;;22.73;12.50;;;;;;;2.53;87.87;96578.78;5036060;28;20208;-74
2021/03/08 09:19:44;;;;;;;29.77;12.77;;;;;;;2.83;87.78;96576.34;5036569;28;20254;-74
2021/03/08 09:22:30;;;;;;;27.03;13.10;;;;;;;2.91;84.35;96583.53;5036347;28;20510;-74
2021/03/08 09:24:58;;;;;;;26.73;12.63;;;;;;;3.01;82.11;96575.69;5036166;28;20213;-73
2021/03/08 09:27:26;;;;;;;22.40;12.07;;;;;;;3.10;80.22;96584.53;5036979;28;20202;-73
2021/03/08 09:29:54;;;;;;;23.87;12.20;;;;;;;2.99;81.68;96581.16;5035366;28;20451;-74
2021/03/08 09:32:21;;;;;;;23.20;12.87;;;;;;;2.97;86.76;96581.28;5036209;28;20205;-73
2021/03/08 09:34:47;;;;;;;23.97;13.03;;;;;;;2.97;86.79;96589.09;5037246;28;20198;-74
2021/03/08 09:37:13;;;;;;;24.80;13.37;;;;;;;2.92;84.40;96574.78;5035515;28;20209;-73
2021/03/08 09:39:49;;;;;;;26.70;13.53;;;;;;;2.85;85.69;96584.88;5035716;28;20253;-74
2021/03/08 09:42:15;;;;;;;28.23;12.93;;;;;;;3.12;85.10;96572.25;5036474;28;20733;-73
2021/03/08 09:44:43;;;;;;;24.30;12.40;;;;;;;3.32;80.84;96571.44;5036026;28;20667;-74
2021/03/08 09:47:09;;;;;;;24.50;11.83;;;;;;;3.54;79.20;96574.78;5035335;28;20236;-74
2021/03/08 09:49:51;;;;;;;20.40;10.97;;;;;;;3.77;78.27;96563.25;5037065;28;20578;-74
2021/03/08 09:52:33;;;;;;;21.87;11.77;;;;;;;3.62;77.22;96568.94;5035970;28;20212;-74
2021/03/08 09:54:59;;;;;;;24.87;10.67;;;;;;;3.88;78.13;96561.41;5035746;28;20262;-73
2021/03/08 09:57:36;;;;;;;20.30;11.20;;;;;;;3.98;75.39;96564.88;5036302;28;20922;-73
2021/03/08 10:00:05;;;;;;;20.47;10.47;;;;;;;3.88;77.09;96569.22;5036824;28;20211;-74
2021/03/08 10:02:31;;;;;;;19.97;11.33;;;;;;;3.84;76.57;96567.81;5036322;28;20205;-74
2021/03/08 10:04:59;;;;;;;19.90;11.17;;;;;;;3.92;80.11;96564.56;5036393;28;20209;-74
2021/03/08 10:07:25;;;;;;;20.53;10.93;;;;;;;4.08;74.54;96568.38;5036346;28;20205;-74
2021/03/08 10:10:10;;;;;;;20.80;11.00;;;;;;;4.28;76.59;96563.09;5036056;28;20213;-74
2021/03/08 10:12:36;;;;;;;23.40;11.60;;;;;;;4.37;76.23;96567.53;5036297;28;20240;-74
2021/03/08 10:15:04;;;;;;;23.73;11.73;;;;;;;4.33;77.06;96560.13;5035738;28;20201;-73
2021/03/08 10:17:30;;;;;;;20.73;11.17;;;;;;;4.27;72.70;96560.63;5036293;28;20220;-74
2021/03/08 10:19:59;;;;;;;19.20;11.23;;;;;;;4.35;74.70;96563.41;5036613;28;20209;-74
2021/03/08 10:22:36;;;;;;;19.97;10.57;;;;;;;4.28;75.47;96563.09;5036225;28;20208;-74
2021/03/08 10:25:02;;;;;;;21.90;11.73;;;;;;;4.33;71.83;96575.78;5035551;28;20204;-74
2021/03/08 10:27:30;;;;;;;21.17;10.30;;;;;;;4.61;70.10;96570.66;5035936;28;20258;-74
2021/03/08 10:29:56;;;;;;;23.13;11.10;;;;;;;4.54;70.70;96568.69;5036396;28;20201;-74
2021/03/08 10:32:23;;;;;;;25.47;11.40;;;;;;;4.34;71.97;96569.56;5036354;28;20635;-74
2021/03/08 10:34:50;;;;;;;21.53;10.97;;;;;;;4.69;71.51;96575.19;5036079;28;20205;-74
2021/03/08 10:37:19;;;;;;;19.87;10.10;;;;;;;4.62;70.40;96576.69;5036116;28;20207;-74
2021/03/08 10:39:50;;;;;;;20.40;10.30;;;;;;;4.63;70.21;96567.91;5035945;28;21083;-74
2021/03/08 10:42:19;;;;;;;20.37;10.33;;;;;;;4.43;69.11;96572.22;5035728;28;20668;-74
2021/03/08 10:44:46;;;;;;;16.67;8.23;;;;;;;4.52;71.82;96565.38;5036441;28;20974;-75
2021/03/08 10:47:13;;;;;;;20.40;10.10;;;;;;;4.45;67.29;96567.69;5035089;28;20208;-73
2021/03/08 10:49:47;;;;;;;17.87;10.47;;;;;;;4.69;75.54;96572.59;5035386;28;20616;-73
2021/03/08 10:52:13;;;;;;;21.50;11.07;;;;;;;4.88;72.97;96576.88;5035985;28;20228;-74
2021/03/08 10:54:40;;;;;;;17.80;10.13;;;;;;;4.95;67.31;96574.56;5034961;28;20228;-74
2021/03/08 10:57:07;;;;;;;15.57;9.83;;;;;;;5.04;66.80;96571.13;5034612;28;20212;-74
2021/03/08 10:59:33;;;;;;;19.23;10.37;;;;;;;5.08;69.71;96570.75;5035950;28;20213;-74
2021/03/08 11:02:00;;;;;;;20.80;11.13;;;;;;;5.36;70.24;96563.88;5035200;28;20322;-75
2021/03/08 11:04:26;;;;;;;20.27;10.70;;;;;;;5.40;68.93;96560.84;5035919;28;20220;-74
2021/03/08 11:06:52;;;;;;;18.17;10.47;;;;;;;5.40;68.54;96560.84;5035181;28;20209;-73
2021/03/08 11:09:26;;;;;;;17.63;10.30;;;;;;;5.62;68.71;96555.34;5035510;28;20205;-74
2021/03/08 11:11:53;;;;;;;17.50;9.70;;;;;;;5.50;72.05;96559.06;5036012;28;20715;-73
2021/03/08 11:14:20;;;;;;;18.70;9.97;;;;;;;5.36;69.37;96562.09;5035937;28;20221;-73
2021/03/08 11:16:51;;;;;;;19.80;9.47;;;;;;;5.57;70.52;96557.53;5035390;28;20244;-74
2021/03/08 11:19:18;;;;;;;18.03;9.93;;;;;;;5.63;70.27;96562.22;5040146;28;20201;-73
2021/03/08 11:21:45;;;;;;;22.10;9.40;;;;;;;5.36;64.94;96556.88;5040019;28;20201;-73
2021/03/08 11:24:16;;;;;;;18.50;9.93;;;;;;;5.62;65.80;96560.56;5039351;28;20224;-73
2021/03/08 11:26:42;;;;;;;14.67;8.57;;;;;;;5.49;65.25;96560.84;5038775;28;20266;-73
2021/03/08 11:29:22;;;;;;;14.77;9.13;;;;;;;5.89;65.41;96564.13;5039639;28;20206;-73